Alexander 3 — SW6137 — position and weather

sailwx.info

Track history (hours):
 
Tides and Currents Weather Stations Pressure Air Temp Water Temp Dewpoint Dewpoint Depression Visibility Wind Speed Wind Dir Waves Ship Positions

Alexander 3

Last reported at 2015-May-25 15:09 UTC. Time now 2015-May-25 23:42 UTC.
Position N 37°56' E 023°37'.

Length 28 m; draft 5.6 m.

Type: Tug. MMSI: 240733000.

Date/timePositionNaut miles runAvg speedWind from/ knotsBaromVisibWave heightAir tempDewpointWater temp
2015-May-25 15:09N 37°56' E 023°37'1 2.4
2015-May-25 14:33N 37°57' E 023°37'0 0.0
2015-May-25 13:34N 37°57' E 023°37'0 0.0
2015-May-25 12:33N 37°57' E 023°37'0 0.0
2015-May-25 11:33N 37°57' E 023°37'0 0.0
2015-May-25 10:33N 37°57' E 023°37'0 0.0
2015-May-25 09:33N 37°57' E 023°37'0 0.0
2015-May-25 08:33N 37°57' E 023°37'0 0.0
2015-May-25 07:33N 37°57' E 023°37'0 0.0
2015-May-25 06:34N 37°57' E 023°37'1 1.1
2015-May-25 05:33N 37°57' E 023°35'0 0.3
2015-May-25 04:34N 37°57' E 023°35'2 1.9
2015-May-25 03:34N 37°56' E 023°37'1 0.0
2015-May-23 20:34N 37°56' E 023°37'1 1.0
2015-May-23 19:34N 37°57' E 023°36'1 0.7
2015-May-23 18:33N 37°57' E 023°37'0 0.0
2015-May-23 17:34N 37°57' E 023°37'0 0.0
2015-May-23 16:34N 37°57' E 023°37'0 0.0
2015-May-23 15:34N 37°57' E 023°37'0 0.0
2015-May-23 14:33N 37°57' E 023°37'0 0.0
2015-May-23 13:33N 37°57' E 023°37'1 1.4
2015-May-23 12:33N 37°57' E 023°35'1 1.4
2015-May-23 11:33N 37°57' E 023°37'0 0.0
2015-May-23 10:34N 37°57' E 023°37'0 0.0
2015-May-23 09:34N 37°57' E 023°37'0 0.0
2015-May-23 08:34N 37°57' E 023°37'0 0.1
2015-May-23 07:34N 37°58' E 023°36'0 0.2
2015-May-23 06:33N 37°57' E 023°37'1 1.2
2015-May-23 05:33N 37°57' E 023°35'1 0.6
2015-May-23 04:33N 37°57' E 023°35'2 2.2
2015-May-23 03:34N 37°56' E 023°38'1 0.1
2015-May-22 11:33N 37°57' E 023°36'1 0.8
2015-May-22 10:33N 37°57' E 023°37'0 0.0
2015-May-22 09:33N 37°57' E 023°37'0 0.0
2015-May-22 08:33N 37°57' E 023°37'0 0.0
2015-May-22 07:33N 37°57' E 023°37'0 0.0
2015-May-22 06:34N 37°57' E 023°37'0 0.4
2015-May-22 05:34N 37°57' E 023°36'2 1.7
2015-May-22 04:33N 37°56' E 023°35'2 1.8
2015-May-22 03:33N 37°56' E 023°37'0 0.0
2015-May-21 11:05N 37°56' E 023°37'2 3.1
2015-May-21 10:33N 37°58' E 023°36'0 0.0
2015-May-21 09:33N 37°58' E 023°36'0 0.4
2015-May-21 08:33N 37°57' E 023°37'0 0.0
2015-May-21 07:33N 37°57' E 023°37'0 0.0
2015-May-21 06:33N 37°57' E 023°37'0 0.0
2015-May-21 05:33N 37°57' E 023°37'3 2.7
2015-May-21 04:33N 37°55' E 023°34'2 2.3
2015-May-21 03:33N 37°56' E 023°37'  
2015-May-18 10:34N 37°56' E 023°37'1 0.6
2015-May-18 09:34N 37°56' E 023°38'0 0.1
2015-May-18 08:27N 37°56' E 023°38'1 0.8
2015-May-18 07:33N 37°56' E 023°37'0 0.0
2015-May-18 06:33N 37°56' E 023°37'1 0.5
2015-May-18 05:33N 37°56' E 023°37'2 1.6
2015-May-18 04:33N 37°57' E 023°35'0 0.3
2015-May-18 03:33N 37°57' E 023°35'2 0.1
2015-May-17 12:13N 37°56' E 023°37'0 0.0
2015-May-17 11:33N 37°56' E 023°37'0 0.0
2015-May-17 10:33N 37°56' E 023°37'0 0.0
2015-May-17 09:33N 37°56' E 023°37'0 0.0
2015-May-17 08:33N 37°56' E 023°37'0 0.0
2015-May-17 07:33N 37°56' E 023°37'0 0.0
2015-May-17 06:33N 37°56' E 023°37'2 1.9
2015-May-17 05:33N 37°57' E 023°35'1 1.5
2015-May-17 04:33N 37°56' E 023°35'2 1.6
2015-May-17 03:33N 37°57' E 023°35'  
Track history (hours):
 
Tides and Currents Weather Stations Pressure Air Temp Water Temp Dewpoint Dewpoint Depression Visibility Wind Speed Wind Dir Waves Ship Positions

Alexander 3

Last reported at 2015-May-25 15:09 UTC. Time now 2015-May-25 23:42 UTC.
Position N 37°56' E 023°37'.

Length 28 m; draft 5.6 m.

Type: Tug. MMSI: 240733000.

Date/timePositionNaut miles runAvg speedWind from/ knotsBaromVisibWave heightAir tempDewpointWater temp
2015-May-25 15:09N 37°56' E 023°37'1 2.4
2015-May-25 14:33N 37°57' E 023°37'0 0.0
2015-May-25 13:34N 37°57' E 023°37'0 0.0
2015-May-25 12:33N 37°57' E 023°37'0 0.0
2015-May-25 11:33N 37°57' E 023°37'0 0.0
2015-May-25 10:33N 37°57' E 023°37'0 0.0
2015-May-25 09:33N 37°57' E 023°37'0 0.0
2015-May-25 08:33N 37°57' E 023°37'0 0.0
2015-May-25 07:33N 37°57' E 023°37'0 0.0
2015-May-25 06:34N 37°57' E 023°37'1 1.1
2015-May-25 05:33N 37°57' E 023°35'0 0.3
2015-May-25 04:34N 37°57' E 023°35'2 1.9
2015-May-25 03:34N 37°56' E 023°37'1 0.0
2015-May-23 20:34N 37°56' E 023°37'1 1.0
2015-May-23 19:34N 37°57' E 023°36'1 0.7
2015-May-23 18:33N 37°57' E 023°37'0 0.0
2015-May-23 17:34N 37°57' E 023°37'0 0.0
2015-May-23 16:34N 37°57' E 023°37'0 0.0
2015-May-23 15:34N 37°57' E 023°37'0 0.0
2015-May-23 14:33N 37°57' E 023°37'0 0.0
2015-May-23 13:33N 37°57' E 023°37'1 1.4
2015-May-23 12:33N 37°57' E 023°35'1 1.4
2015-May-23 11:33N 37°57' E 023°37'0 0.0
2015-May-23 10:34N 37°57' E 023°37'0 0.0
2015-May-23 09:34N 37°57' E 023°37'0 0.0
2015-May-23 08:34N 37°57' E 023°37'0 0.1
2015-May-23 07:34N 37°58' E 023°36'0 0.2
2015-May-23 06:33N 37°57' E 023°37'1 1.2
2015-May-23 05:33N 37°57' E 023°35'1 0.6
2015-May-23 04:33N 37°57' E 023°35'2 2.2
2015-May-23 03:34N 37°56' E 023°38'1 0.1
2015-May-22 11:33N 37°57' E 023°36'1 0.8
2015-May-22 10:33N 37°57' E 023°37'0 0.0
2015-May-22 09:33N 37°57' E 023°37'0 0.0
2015-May-22 08:33N 37°57' E 023°37'0 0.0
2015-May-22 07:33N 37°57' E 023°37'0 0.0
2015-May-22 06:34N 37°57' E 023°37'0 0.4
2015-May-22 05:34N 37°57' E 023°36'2 1.7
2015-May-22 04:33N 37°56' E 023°35'2 1.8
2015-May-22 03:33N 37°56' E 023°37'0 0.0
2015-May-21 11:05N 37°56' E 023°37'2 3.1
2015-May-21 10:33N 37°58' E 023°36'0 0.0
2015-May-21 09:33N 37°58' E 023°36'0 0.4
2015-May-21 08:33N 37°57' E 023°37'0 0.0
2015-May-21 07:33N 37°57' E 023°37'0 0.0
2015-May-21 06:33N 37°57' E 023°37'0 0.0
2015-May-21 05:33N 37°57' E 023°37'3 2.7
2015-May-21 04:33N 37°55' E 023°34'2 2.3
2015-May-21 03:33N 37°56' E 023°37'  
2015-May-18 10:34N 37°56' E 023°37'1 0.6
2015-May-18 09:34N 37°56' E 023°38'0 0.1
2015-May-18 08:27N 37°56' E 023°38'1 0.8
2015-May-18 07:33N 37°56' E 023°37'0 0.0
2015-May-18 06:33N 37°56' E 023°37'1 0.5
2015-May-18 05:33N 37°56' E 023°37'2 1.6
2015-May-18 04:33N 37°57' E 023°35'0 0.3
2015-May-18 03:33N 37°57' E 023°35'2 0.1
2015-May-17 12:13N 37°56' E 023°37'0 0.0
2015-May-17 11:33N 37°56' E 023°37'0 0.0
2015-May-17 10:33N 37°56' E 023°37'0 0.0
2015-May-17 09:33N 37°56' E 023°37'0 0.0
2015-May-17 08:33N 37°56' E 023°37'0 0.0
2015-May-17 07:33N 37°56' E 023°37'0 0.0
2015-May-17 06:33N 37°56' E 023°37'2 1.9
2015-May-17 05:33N 37°57' E 023°35'1 1.5
2015-May-17 04:33N 37°56' E 023°35'2 1.6
2015-May-17 03:33N 37°57' E 023°35'  

Dump ship's entire track history